Time;durP1;ratioP1;P1;durP2;ratioP2;P2;SDS_P1;SDS_P2;PMS_P1;PMS_P2;Temp;Humidity;BMP_temperature;BMP_pressure;BME280_temperature;BME280_humidity;BME280_pressure;Samples;Min_cycle;Max_cycle;Signal;HPM_P1;HPM_P2
2023/05/04 00:00:33;;;;;;;3.67;2.15;;;;;;;9.04;79.87;102300.53;6276799;28;20056;-76
2023/05/04 00:03:35;;;;;;;7.05;2.80;;;;;;;8.88;80.79;102294.75;6276539;28;20052;-75
2023/05/04 00:06:36;;;;;;;7.80;2.17;;;;;;;8.82;81.67;102293.13;6275752;28;20068;-75
2023/05/04 00:09:37;;;;;;;4.88;2.40;;;;;;;8.84;82.15;102288.69;6275616;28;20045;-76
2023/05/04 00:12:39;;;;;;;3.25;2.13;;;;;;;8.86;82.02;102291.31;6276499;28;20052;-76
2023/05/04 00:15:42;;;;;;;5.18;2.53;;;;;;;8.83;82.41;102284.34;6276079;28;20048;-76
2023/05/04 00:18:43;;;;;;;6.22;2.47;;;;;;;8.77;81.69;102271.41;6275857;28;20045;-76
2023/05/04 00:21:45;;;;;;;4.45;2.50;;;;;;;8.77;81.85;102279.25;6276109;28;20052;-76
2023/05/04 00:24:46;;;;;;;9.20;3.03;;;;;;;8.78;82.72;102275.72;6276050;28;20134;-76
2023/05/04 00:27:47;;;;;;;5.60;2.67;;;;;;;8.81;81.61;102272.16;6275858;28;20056;-76
2023/05/04 00:30:52;;;;;;;5.78;2.65;;;;;;;8.75;82.24;102267.94;6275913;28;20048;-76
2023/05/04 00:33:53;;;;;;;6.45;3.03;;;;;;;8.62;82.17;102262.06;6275570;28;20052;-76
2023/05/04 00:36:55;;;;;;;4.28;2.85;;;;;;;8.43;83.46;102260.72;6275594;28;20045;-76
2023/05/04 00:39:57;;;;;;;5.50;2.53;;;;;;;8.32;84.80;102260.91;6275626;28;20060;-76
2023/05/04 00:42:59;;;;;;;4.57;2.47;;;;;;;8.28;85.74;102261.00;6275397;28;20052;-76
2023/05/04 00:46:01;;;;;;;4.47;2.50;;;;;;;8.26;85.42;102261.03;6275738;28;20080;-76
2023/05/04 00:49:03;;;;;;;4.82;2.72;;;;;;;8.12;86.35;102256.03;6275297;28;20045;-75
2023/05/04 00:52:06;;;;;;;7.53;3.13;;;;;;;8.12;87.40;102253.44;6275441;28;20045;-76
2023/05/04 00:55:08;;;;;;;5.07;2.80;;;;;;;8.16;87.77;102251.63;6275435;28;20049;-76
2023/05/04 00:58:10;;;;;;;4.40;3.00;;;;;;;8.16;86.36;102250.75;6274928;28;20048;-76
2023/05/04 01:01:13;;;;;;;4.30;3.03;;;;;;;8.17;86.61;102249.88;6275346;28;20464;-76
2023/05/04 01:04:15;;;;;;;3.83;2.50;;;;;;;8.09;86.62;102250.03;6274281;28;20055;-76
2023/05/04 01:07:22;;;;;;;4.40;2.90;;;;;;;8.09;86.67;102243.03;6275104;28;20051;-76
2023/05/04 01:10:29;;;;;;;3.42;2.42;;;;;;;8.12;87.57;102239.47;6275000;28;20048;-76
2023/05/04 01:13:34;;;;;;;6.18;2.88;;;;;;;8.03;86.00;102240.50;6274869;28;20044;-76
2023/05/04 01:16:37;;;;;;;4.30;2.63;;;;;;;8.01;86.84;102241.44;6274861;28;20067;-76
2023/05/04 01:19:38;;;;;;;3.30;2.38;;;;;;;7.96;87.85;102238.91;6274984;28;20045;-76
2023/05/04 01:22:41;;;;;;;6.20;2.75;;;;;;;7.79;87.99;102240.97;6274760;28;20041;-76
2023/05/04 01:25:55;;;;;;;3.20;2.22;;;;;;;7.61;90.65;102243.00;6269553;28;20052;-76
2023/05/04 01:29:02;;;;;;;6.70;3.25;;;;;;;7.65;90.99;102238.59;6268168;28;20048;-76
2023/05/04 01:32:05;;;;;;;4.50;2.70;;;;;;;7.75;90.72;102234.91;6274732;28;20146;-76
2023/05/04 01:35:08;;;;;;;7.28;3.10;;;;;;;7.66;90.01;102234.22;6274487;28;20053;-76
2023/05/04 01:38:11;;;;;;;7.28;2.80;;;;;;;7.61;90.85;102234.31;6274519;28;20342;-76
2023/05/04 01:41:12;;;;;;;4.32;2.65;;;;;;;7.54;91.95;102235.28;6274802;28;20127;-76
2023/05/04 01:44:14;;;;;;;9.13;3.55;;;;;;;7.55;91.71;102232.66;6274947;28;20048;-76
2023/05/04 01:47:15;;;;;;;4.78;2.70;;;;;;;7.63;90.79;102238.63;6274533;28;20044;-76
2023/05/04 01:50:16;;;;;;;6.25;2.78;;;;;;;7.66;90.01;102239.47;6274576;28;20049;-76
2023/05/04 01:53:19;;;;;;;4.97;2.95;;;;;;;7.56;89.15;102238.75;6274903;28;20067;-76
2023/05/04 01:56:21;;;;;;;4.78;2.92;;;;;;;7.56;90.01;102241.38;6274305;28;20361;-76
2023/05/04 01:59:22;;;;;;;4.85;2.80;;;;;;;7.59;89.90;102236.97;6274362;28;20175;-76
2023/05/04 02:02:24;;;;;;;3.20;2.03;;;;;;;7.61;90.02;102240.41;6274469;28;20045;-76
2023/05/04 02:05:25;;;;;;;3.30;2.45;;;;;;;7.62;89.38;102246.50;6274269;28;20048;-76
2023/05/04 02:08:28;;;;;;;7.38;2.85;;;;;;;7.62;89.27;102243.88;6274052;28;20052;-76
2023/05/04 02:11:30;;;;;;;5.10;2.30;;;;;;;7.63;88.44;102236.03;6274625;28;20045;-76
2023/05/04 02:14:31;;;;;;;5.20;2.97;;;;;;;7.56;89.29;102239.63;6274849;28;20048;-76
2023/05/04 02:17:33;;;;;;;4.68;2.35;;;;;;;7.47;88.81;102239.78;6279010;28;20048;-76
2023/05/04 02:20:34;;;;;;;5.30;2.55;;;;;;;7.47;90.51;102242.38;6278769;28;20072;-76
2023/05/04 02:23:37;;;;;;;7.43;2.33;;;;;;;7.38;90.11;102235.53;6278949;28;20045;-76
2023/05/04 02:26:38;;;;;;;3.97;2.20;;;;;;;7.45;90.62;102238.94;6273057;28;20046;-76
2023/05/04 02:29:40;;;;;;;1.90;1.63;;;;;;;7.46;89.83;102238.03;6276394;28;20041;-76
2023/05/04 02:32:41;;;;;;;4.05;2.22;;;;;;;7.53;89.76;102233.56;6278157;28;20056;-75
2023/05/04 02:35:42;;;;;;;6.07;2.08;;;;;;;7.58;88.73;102234.34;6278050;28;20052;-76
2023/05/04 02:38:45;;;;;;;3.25;2.00;;;;;;;7.48;89.81;102231.03;6272664;28;20364;-76
2023/05/04 02:41:46;;;;;;;3.75;2.22;;;;;;;7.45;87.71;102231.09;6278077;28;20350;-75
2023/05/04 02:44:48;;;;;;;4.82;1.95;;;;;;;7.46;89.59;102224.97;6277193;28;20350;-76
2023/05/04 02:47:49;;;;;;;2.25;1.67;;;;;;;7.51;88.84;102225.75;6277579;28;20357;-76
2023/05/04 02:50:51;;;;;;;2.75;2.30;;;;;;;7.41;88.69;102223.31;6278145;28;20229;-76
2023/05/04 02:53:54;;;;;;;3.15;2.10;;;;;;;7.41;88.24;102221.56;6278424;28;20429;-76
2023/05/04 02:56:56;;;;;;;3.70;1.80;;;;;;;7.42;88.63;102215.44;6278159;28;20049;-76
2023/05/04 02:59:57;;;;;;;2.38;1.70;;;;;;;7.49;88.46;102211.81;6277773;28;20053;-76
2023/05/04 03:02:58;;;;;;;1.60;1.35;;;;;;;7.48;87.88;102210.09;6277878;28;20053;-76
2023/05/04 03:06:00;;;;;;;6.53;2.10;;;;;;;7.42;88.63;102214.59;6277865;28;20053;-76
2023/05/04 03:09:03;;;;;;;9.32;2.28;;;;;;;7.37;88.87;102204.19;6277618;28;20041;-76
2023/05/04 03:12:05;;;;;;;5.28;2.10;;;;;;;7.42;88.43;102209.34;6277849;28;20045;-76
2023/05/04 03:15:08;;;;;;;4.43;2.15;;;;;;;7.40;88.79;102211.13;6277911;28;20440;-76
2023/05/04 03:18:10;;;;;;;5.38;1.95;;;;;;;7.41;88.95;102210.25;6277509;28;20045;-76
2023/05/04 03:21:11;;;;;;;8.88;2.15;;;;;;;7.36;88.08;102205.97;6277778;28;20065;-76
2023/05/04 03:24:17;;;;;;;2.80;2.00;;;;;;;7.31;89.08;102202.56;6275415;28;20049;-76
2023/05/04 03:27:19;;;;;;;2.88;1.65;;;;;;;7.30;88.34;102205.19;6254853;28;20480;-76
2023/05/04 03:30:20;;;;;;;5.97;2.30;;;;;;;7.19;88.15;102201.88;6255786;28;20117;-77
2023/05/04 03:33:22;;;;;;;5.97;2.28;;;;;;;7.17;88.99;102196.66;6255500;28;20044;-76
2023/05/04 03:36:23;;;;;;;3.55;1.70;;;;;;;7.08;89.56;102194.19;6253698;28;20036;-76
2023/05/04 03:39:26;;;;;;;4.45;1.92;;;;;;;7.00;90.28;102198.69;6256410;28;20549;-76
2023/05/04 03:42:27;;;;;;;5.50;2.28;;;;;;;6.94;89.77;102194.41;6254932;28;20036;-76
2023/05/04 03:45:29;;;;;;;5.10;1.73;;;;;;;6.94;91.38;102196.16;6256345;28;20044;-77
2023/05/04 03:48:30;;;;;;;2.72;1.70;;;;;;;6.96;91.03;102194.41;6255110;28;20037;-77
2023/05/04 03:51:31;;;;;;;3.72;2.15;;;;;;;6.96;91.10;102187.41;6255733;28;20041;-76
2023/05/04 03:54:34;;;;;;;2.63;1.67;;;;;;;6.98;92.33;102183.03;6258881;28;20041;-77
2023/05/04 03:57:36;;;;;;;3.58;1.55;;;;;;;6.97;91.05;102185.66;6254968;28;20041;-76
2023/05/04 04:00:37;;;;;;;5.15;1.85;;;;;;;6.96;90.43;102179.56;6256241;28;20045;-76
2023/05/04 04:03:39;;;;;;;4.35;1.98;;;;;;;7.00;91.21;102172.56;6255923;28;20048;-77
2023/05/04 04:06:41;;;;;;;3.42;1.75;;;;;;;6.94;90.82;102177.88;6255672;28;20045;-76
2023/05/04 04:09:43;;;;;;;5.38;1.80;;;;;;;6.96;90.99;102169.13;6255498;28;20045;-77
2023/05/04 04:12:45;;;;;;;4.85;2.22;;;;;;;6.88;90.64;102168.38;6254541;28;20053;-76
2023/05/04 04:15:46;;;;;;;2.72;1.42;;;;;;;6.89;92.39;102171.84;6256582;28;20045;-77
2023/05/04 04:18:48;;;;;;;6.05;2.35;;;;;;;6.91;92.20;102178.78;6260315;28;20174;-75
2023/05/04 04:21:49;;;;;;;2.67;1.67;;;;;;;6.98;91.85;102176.94;6249848;28;20357;-76
2023/05/04 04:24:52;;;;;;;3.20;1.60;;;;;;;7.04;92.41;102175.09;6263816;28;20449;-76
2023/05/04 04:27:54;;;;;;;2.70;1.55;;;;;;;7.14;91.73;102170.59;6276114;28;20045;-76
2023/05/04 04:30:55;;;;;;;3.15;1.63;;;;;;;7.11;91.31;102179.31;6275827;28;20085;-76
2023/05/04 04:33:57;;;;;;;3.47;1.55;;;;;;;7.17;90.93;102180.97;6275614;28;20135;-76
2023/05/04 04:36:58;;;;;;;4.72;2.00;;;;;;;7.13;90.68;102184.56;6275339;28;20045;-76
2023/05/04 04:40:02;;;;;;;6.18;2.15;;;;;;;7.17;90.37;102182.72;6274868;28;20081;-76
2023/05/04 04:43:03;;;;;;;5.18;1.40;;;;;;;7.20;91.67;102180.06;6275809;28;20136;-76
2023/05/04 04:46:05;;;;;;;2.92;1.13;;;;;;;7.12;91.94;102178.44;6275709;28;20131;-76
2023/05/04 04:49:06;;;;;;;3.22;1.55;;;;;;;7.11;92.11;102175.84;6275543;28;20048;-76
2023/05/04 04:52:08;;;;;;;2.80;1.17;;;;;;;7.09;91.27;102177.66;6275433;28;20533;-76
2023/05/04 04:55:11;;;;;;;6.18;1.55;;;;;;;7.27;91.75;102186.94;6275659;28;20053;-76
2023/05/04 04:58:12;;;;;;;5.18;1.50;;;;;;;7.34;91.65;102178.09;6275135;28;20444;-76
2023/05/04 05:01:16;;;;;;;11.38;1.77;;;;;;;7.39;91.18;102173.63;6275492;28;20056;-76
2023/05/04 05:04:18;;;;;;;3.35;1.58;;;;;;;7.42;90.82;102170.97;6275086;28;20051;-76
2023/05/04 05:07:20;;;;;;;2.92;1.45;;;;;;;7.38;90.30;102166.69;6275044;28;20056;-76
2023/05/04 05:10:23;;;;;;;2.10;1.35;;;;;;;7.38;90.74;102167.56;6274569;28;20044;-76
2023/05/04 05:13:24;;;;;;;1.83;1.27;;;;;;;7.41;90.80;102168.41;6274996;28;20131;-78
2023/05/04 05:16:26;;;;;;;7.72;1.65;;;;;;;7.42;91.03;102176.22;6275228;28;20051;-79
2023/05/04 05:19:27;;;;;;;4.65;1.42;;;;;;;7.43;91.61;102182.31;6274688;28;20036;-77
2023/05/04 05:22:29;;;;;;;3.80;1.40;;;;;;;7.55;91.78;102185.56;6275072;28;20049;-77
2023/05/04 05:25:32;;;;;;;1.95;1.17;;;;;;;7.69;91.99;102168.78;6274964;28;20049;-77
2023/05/04 05:28:33;;;;;;;7.43;1.50;;;;;;;7.71;90.94;102178.28;6269042;28;20127;-77
2023/05/04 05:31:35;;;;;;;5.05;1.58;;;;;;;7.70;92.03;102179.19;6274766;28;20412;-77
2023/05/04 05:34:37;;;;;;;3.20;1.40;;;;;;;7.75;90.99;102179.13;6274972;28;20080;-77
2023/05/04 05:37:39;;;;;;;1.98;1.35;;;;;;;7.82;90.71;102184.22;6274739;28;20053;-77
2023/05/04 05:40:41;;;;;;;3.03;1.35;;;;;;;7.85;90.76;102184.13;6274830;28;20045;-84
2023/05/04 05:43:43;;;;;;;4.25;1.25;;;;;;;7.86;89.93;102185.03;6276198;28;20077;-85
2023/05/04 05:46:44;;;;;;;3.83;1.92;;;;;;;7.88;89.73;102183.22;6275647;28;20056;-86
2023/05/04 05:49:45;;;;;;;6.03;1.40;;;;;;;7.95;90.97;102176.09;6278183;28;20049;-87
2023/05/04 05:52:47;;;;;;;5.07;1.73;;;;;;;7.95;90.67;102182.22;6280987;28;20053;-86
2023/05/04 05:55:49;;;;;;;3.05;1.30;;;;;;;8.06;90.66;102174.16;6281014;28;20053;-87
2023/05/04 05:58:51;;;;;;;4.65;1.77;;;;;;;8.12;89.99;102177.50;6280057;28;20076;-86
2023/05/04 06:01:52;;;;;;;6.22;1.95;;;;;;;8.24;89.48;102179.03;6280675;28;20049;-87
2023/05/04 06:04:54;;;;;;;9.68;1.48;;;;;;;8.31;89.17;102178.00;6275706;28;20437;-86
2023/05/04 06:07:55;;;;;;;7.47;2.45;;;;;;;8.35;89.06;102171.78;6280084;28;20353;-87
2023/05/04 06:10:58;;;;;;;4.32;1.67;;;;;;;8.34;89.03;102167.44;6280079;28;20349;-85
2023/05/04 06:14:00;;;;;;;3.85;1.90;;;;;;;8.39;89.70;102170.00;6280309;28;20052;-85
2023/05/04 06:17:01;;;;;;;4.82;2.05;;;;;;;8.50;87.76;102167.16;6280285;28;20049;-86
2023/05/04 06:20:02;;;;;;;4.05;1.50;;;;;;;8.53;88.64;102160.06;6280059;28;20047;-85
2023/05/04 06:23:04;;;;;;;6.07;1.77;;;;;;;8.67;89.87;102172.88;6280351;28;20056;-85
2023/05/04 06:26:07;;;;;;;6.32;2.15;;;;;;;8.73;88.65;102167.50;6279883;28;20060;-84
2023/05/04 06:29:08;;;;;;;5.45;1.10;;;;;;;8.84;88.23;102164.63;6279752;28;20122;-86
2023/05/04 06:32:10;;;;;;;8.88;1.90;;;;;;;8.90;87.11;102169.72;6273787;28;20131;-86
2023/05/04 06:35:12;;;;;;;4.22;1.88;;;;;;;8.98;87.23;102172.16;6279947;28;20051;-86
2023/05/04 06:38:14;;;;;;;3.25;1.42;;;;;;;9.11;86.74;102171.84;6279263;28;20049;-86
2023/05/04 06:41:16;;;;;;;4.20;2.10;;;;;;;9.17;87.17;102172.59;6279555;28;20055;-87
2023/05/04 06:44:18;;;;;;;6.75;1.65;;;;;;;9.24;86.42;102172.41;6279316;28;20045;-86
2023/05/04 06:47:19;;;;;;;5.45;1.73;;;;;;;9.30;86.47;102174.88;6276890;28;20056;-85
2023/05/04 06:50:22;;;;;;;6.30;1.85;;;;;;;9.37;84.76;102181.69;6271321;28;20052;-81
2023/05/04 06:53:24;;;;;;;3.75;1.70;;;;;;;9.43;84.40;102164.06;6270315;28;20464;-80
2023/05/04 06:56:27;;;;;;;7.13;1.65;;;;;;;9.53;85.33;102162.91;6276266;28;20136;-83
2023/05/04 06:59:35;;;;;;;4.95;1.40;;;;;;;9.60;85.50;102161.88;6276986;28;20353;-83
2023/05/04 07:02:36;;;;;;;4.03;1.70;;;;;;;9.71;83.35;102159.81;6272189;28;20446;-82
2023/05/04 07:05:37;;;;;;;1.38;1.25;;;;;;;9.78;83.64;102155.28;6271959;28;20045;-82
2023/05/04 07:08:39;;;;;;;4.97;1.30;;;;;;;9.80;82.44;102153.44;6268917;28;20041;-77
2023/05/04 07:11:42;;;;;;;5.72;2.33;;;;;;;9.89;82.93;102153.19;6268324;28;20045;-81
2023/05/04 07:14:43;;;;;;;4.80;1.73;;;;;;;9.98;83.08;102152.94;6272827;28;20049;-81
2023/05/04 07:17:49;;;;;;;9.45;1.25;;;;;;;10.05;82.46;102144.00;6277140;28;20053;-81
2023/05/04 07:20:50;;;;;;;2.53;1.30;;;;;;;10.10;81.56;102144.72;6275974;28;20052;-81
2023/05/04 07:23:52;;;;;;;6.18;1.73;;;;;;;10.17;81.72;102142.75;6277458;28;20049;-81
2023/05/04 07:26:55;;;;;;;3.78;1.65;;;;;;;10.23;82.21;102141.75;6274157;28;20468;-81
2023/05/04 07:29:57;;;;;;;6.15;2.17;;;;;;;10.30;82.12;102135.41;6276887;28;20424;-81
2023/05/04 07:33:01;;;;;;;5.82;1.50;;;;;;;10.34;80.65;102134.41;6276827;28;20056;-81
2023/05/04 07:36:03;;;;;;;4.72;1.70;;;;;;;10.46;78.91;102135.81;6276911;28;20048;-78
2023/05/04 07:39:06;;;;;;;4.57;1.17;;;;;;;10.48;78.98;102134.84;6276577;28;20037;-81
2023/05/04 07:42:11;;;;;;;3.20;1.42;;;;;;;10.55;79.38;102127.66;6276725;28;20052;-81
2023/05/04 07:45:14;;;;;;;3.33;1.50;;;;;;;10.64;79.39;102125.59;6276974;28;20480;-78
2023/05/04 07:48:16;;;;;;;5.05;1.70;;;;;;;10.72;79.87;102121.84;6277014;28;20077;-78
2023/05/04 07:51:18;;;;;;;4.78;1.58;;;;;;;10.71;77.53;102120.13;6276734;28;20128;-78
2023/05/04 07:54:20;;;;;;;2.70;1.40;;;;;;;10.77;77.91;102119.97;6277042;28;20053;-78
2023/05/04 07:57:23;;;;;;;3.78;1.40;;;;;;;10.87;79.41;102111.72;6262988;28;20052;-78
2023/05/04 08:00:26;;;;;;;3.28;1.42;;;;;;;11.06;79.24;102114.59;6265749;28;20045;-75
2023/05/04 08:03:29;;;;;;;1.92;1.10;;;;;;;11.11;78.65;102106.53;6271049;28;20045;-81
2023/05/04 08:06:32;;;;;;;2.17;1.17;;;;;;;11.18;78.62;102108.06;6276385;28;20345;-79
2023/05/04 08:09:33;;;;;;;2.20;1.27;;;;;;;11.34;76.52;102103.13;6276356;28;20124;-78
2023/05/04 08:12:36;;;;;;;1.80;1.30;;;;;;;11.39;76.96;102098.56;6276038;28;20123;-75
2023/05/04 08:15:37;;;;;;;2.13;1.17;;;;;;;11.51;78.52;102102.53;6276304;28;20045;-78
2023/05/04 08:18:39;;;;;;;4.32;1.50;;;;;;;11.57;77.30;102103.16;6276020;28;20045;-76
2023/05/04 08:21:40;;;;;;;5.07;1.58;;;;;;;11.64;77.49;102088.88;6276487;28;20438;-77
2023/05/04 08:24:41;;;;;;;1.35;0.93;;;;;;;11.76;78.03;102089.34;6276003;28;20067;-75
2023/05/04 08:27:45;;;;;;;2.05;1.13;;;;;;;11.87;76.46;102088.06;6275731;28;20056;-74
2023/05/04 08:30:46;;;;;;;7.88;2.85;;;;;;;11.96;74.87;102086.88;6276014;28;20072;-76
2023/05/04 08:33:47;;;;;;;5.07;1.30;;;;;;;12.01;72.04;102076.16;6272487;28;20453;-76
2023/05/04 08:36:49;;;;;;;2.45;1.17;;;;;;;12.08;72.19;102070.59;6260198;28;20053;-77
2023/05/04 08:39:50;;;;;;;3.10;1.10;;;;;;;12.12;73.91;102064.25;6275132;28;20124;-75
2023/05/04 08:42:53;;;;;;;7.70;1.73;;;;;;;12.21;74.19;102070.09;6271854;28;20044;-76
2023/05/04 08:45:55;;;;;;;5.22;1.27;;;;;;;12.32;73.74;102062.66;6275601;28;20052;-76
2023/05/04 08:48:56;;;;;;;6.50;1.50;;;;;;;12.40;70.35;102056.16;6275155;28;20052;-75
2023/05/04 08:51:59;;;;;;;2.28;1.10;;;;;;;12.42;73.18;102054.31;6267687;28;20441;-75
2023/05/04 08:55:01;;;;;;;4.85;2.05;;;;;;;12.55;71.78;102054.69;6274877;28;20358;-75
2023/05/04 08:58:09;;;;;;;7.65;1.23;;;;;;;12.63;72.36;102060.50;6274705;28;20622;-76
2023/05/04 09:01:12;;;;;;;5.78;2.15;;;;;;;12.77;70.66;102045.88;6273830;28;20040;-76
2023/05/04 09:04:13;;;;;;;6.78;1.63;;;;;;;12.79;70.67;102049.31;6263941;28;20048;-78
2023/05/04 09:07:15;;;;;;;3.47;1.17;;;;;;;12.78;68.48;102053.72;6265319;28;20045;-78
2023/05/04 09:10:16;;;;;;;3.78;1.45;;;;;;;12.91;69.76;102047.03;6267961;28;20045;-77
2023/05/04 09:13:19;;;;;;;3.97;1.35;;;;;;;13.06;70.15;102049.91;6267228;28;20179;-76
2023/05/04 09:16:21;;;;;;;7.28;1.58;;;;;;;13.14;69.73;102045.19;6275213;28;20049;-76
2023/05/04 09:19:22;;;;;;;2.20;1.20;;;;;;;13.19;67.66;102044.06;6271178;28;20037;-76
2023/05/04 09:22:23;;;;;;;2.05;1.20;;;;;;;13.29;65.42;102043.69;6266184;28;20041;-75
2023/05/04 09:25:25;;;;;;;7.75;1.40;;;;;;;13.32;65.65;102040.91;6265149;28;20048;-75
2023/05/04 09:28:38;;;;;;;2.42;1.40;;;;;;;13.36;65.34;102045.13;6273034;28;20059;-75
2023/05/04 09:31:44;;;;;;;1.60;1.30;;;;;;;13.44;65.46;102045.63;6273697;28;20095;-75
2023/05/04 09:34:50;;;;;;;5.35;1.30;;;;;;;13.56;65.60;102038.97;6270322;28;20052;-76
2023/05/04 09:37:51;;;;;;;2.92;1.20;;;;;;;13.68;64.47;102043.69;6267299;28;20353;-76
2023/05/04 09:40:52;;;;;;;5.05;1.63;;;;;;;13.73;63.83;102046.97;6268583;28;20052;-76
2023/05/04 09:43:56;;;;;;;2.80;1.40;;;;;;;13.80;64.79;102047.53;6263586;28;20060;-75
2023/05/04 09:46:58;;;;;;;4.53;1.40;;;;;;;13.95;63.61;102044.22;6266667;28;20092;-77
2023/05/04 09:50:11;;;;;;;6.38;2.03;;;;;;;13.99;63.66;102040.50;6274408;28;20123;-75
2023/05/04 09:53:13;;;;;;;3.78;1.50;;;;;;;14.12;62.33;102028.38;6274807;28;20073;-75
2023/05/04 09:56:25;;;;;;;5.18;1.33;;;;;;;14.23;62.78;102027.03;6274007;28;20053;-75
2023/05/04 09:59:30;;;;;;;3.90;1.67;;;;;;;14.28;59.47;102027.66;6274450;28;20049;-76
2023/05/04 10:02:32;;;;;;;3.53;1.50;;;;;;;14.21;60.45;102027.94;6274636;28;20155;-75
2023/05/04 10:05:33;;;;;;;4.45;1.38;;;;;;;14.24;60.89;102019.03;6273993;28;20357;-76
2023/05/04 10:08:35;;;;;;;4.10;1.55;;;;;;;14.29;61.70;102019.66;6274292;28;20052;-74
2023/05/04 10:11:37;;;;;;;4.75;2.20;;;;;;;14.42;61.49;102017.28;6274541;28;20053;-76
2023/05/04 10:14:41;;;;;;;3.97;1.80;;;;;;;14.57;60.86;102003.31;6268732;28;20048;-75
2023/05/04 10:17:54;;;;;;;7.00;1.88;;;;;;;14.69;58.75;102001.84;6271697;28;20056;-74
2023/05/04 10:21:21;;;;;;;5.55;1.73;;;;;;;14.71;59.04;102003.47;6261588;28;20049;-74
2023/05/04 10:24:37;;;;;;;3.88;1.80;;;;;;;14.80;60.71;101999.50;6273190;28;20449;-75
2023/05/04 10:27:51;;;;;;;10.27;1.70;;;;;;;14.85;59.34;101996.63;6271707;28;20053;-75
2023/05/04 10:30:57;;;;;;;7.88;1.92;;;;;;;15.01;58.70;101986.09;6269949;28;20045;-75
2023/05/04 10:33:59;;;;;;;3.78;1.60;;;;;;;15.19;57.81;101985.13;6261608;28;20135;-74
2023/05/04 10:37:02;;;;;;;9.45;1.77;;;;;;;15.30;57.70;101979.25;6276734;28;20055;-76
2023/05/04 10:40:06;;;;;;;1.98;1.38;;;;;;;15.40;57.89;101976.06;6278080;28;20130;-75
2023/05/04 10:43:10;;;;;;;2.78;1.52;;;;;;;15.45;54.73;101971.38;6272567;28;20051;-75
2023/05/04 10:46:20;;;;;;;2.80;1.30;;;;;;;15.50;54.72;101972.91;6273059;28;20056;-75
2023/05/04 10:49:21;;;;;;;2.40;1.10;;;;;;;15.54;56.21;101969.16;6278106;28;20059;-76
2023/05/04 10:52:23;;;;;;;2.65;1.38;;;;;;;15.58;52.56;101963.59;6275193;28;20059;-75
2023/05/04 10:55:24;;;;;;;9.30;2.58;;;;;;;15.80;52.08;101967.72;6275087;28;20047;-74
2023/05/04 10:58:29;;;;;;;4.20;1.42;;;;;;;15.87;52.57;101958.50;6277067;28;20051;-74
2023/05/04 11:01:42;;;;;;;8.48;1.65;;;;;;;16.02;53.31;101940.88;6272927;28;20462;-75
2023/05/04 11:04:43;;;;;;;5.55;2.03;;;;;;;16.13;53.63;101938.47;6277233;28;20131;-74
2023/05/04 11:07:49;;;;;;;1.52;1.15;;;;;;;16.22;52.74;101929.97;6274761;28;20053;-74
2023/05/04 11:11:01;;;;;;;3.45;1.40;;;;;;;16.19;54.61;101927.50;6269416;28;20345;-78
2023/05/04 11:14:03;;;;;;;3.35;1.70;;;;;;;16.40;54.95;101922.75;6277096;28;20127;-79
2023/05/04 11:17:09;;;;;;;3.90;1.88;;;;;;;16.50;52.42;101921.25;6277539;28;20052;-78
2023/05/04 11:20:18;;;;;;;4.15;1.70;;;;;;;16.64;54.61;101918.63;6271697;28;20052;-81
2023/05/04 11:23:20;;;;;;;2.05;1.55;;;;;;;16.86;52.26;101920.88;6277725;28;20040;-81
2023/05/04 11:26:21;;;;;;;2.15;1.10;;;;;;;17.06;51.82;101910.81;6277601;28;20040;-80
2023/05/04 11:29:23;;;;;;;4.00;1.20;;;;;;;17.24;50.89;101901.69;6277343;28;20041;-80
2023/05/04 11:32:35;;;;;;;3.15;1.23;;;;;;;17.47;52.91;101901.09;6277458;28;20048;-80
2023/05/04 11:35:36;;;;;;;3.10;1.55;;;;;;;17.65;46.63;101901.72;6275284;28;20068;-80
2023/05/04 11:38:38;;;;;;;2.65;1.83;;;;;;;17.69;47.88;101895.25;6276851;28;20330;-80
2023/05/04 11:41:39;;;;;;;1.98;1.10;;;;;;;17.70;48.70;101891.63;6276980;28;20044;-80
2023/05/04 11:44:41;;;;;;;2.15;1.05;;;;;;;17.77;49.08;101889.47;6276885;28;20052;-79
2023/05/04 11:47:45;;;;;;;2.50;1.25;;;;;;;17.82;48.05;101879.38;6276654;28;20056;-79
2023/05/04 11:50:47;;;;;;;4.22;1.60;;;;;;;17.95;50.34;101868.78;6276898;28;20206;-80
2023/05/04 11:53:49;;;;;;;4.03;1.20;;;;;;;18.05;46.39;101863.72;6276879;28;20191;-81
2023/05/04 11:56:51;;;;;;;3.05;1.50;;;;;;;18.19;46.31;101853.00;6276906;28;20103;-80
2023/05/04 11:59:52;;;;;;;6.85;1.10;;;;;;;18.33;49.04;101858.22;6276566;28;20045;-79
2023/05/04 12:02:57;;;;;;;2.83;1.30;;;;;;;18.46;47.59;101855.56;6276474;28;20051;-79
2023/05/04 12:05:59;;;;;;;2.35;1.35;;;;;;;18.60;45.77;101849.28;6276296;28;20044;-79
2023/05/04 12:09:02;;;;;;;1.17;0.80;;;;;;;18.84;48.90;101852.06;6272405;28;20080;-81
2023/05/04 12:12:04;;;;;;;4.47;1.40;;;;;;;19.08;44.41;101852.16;6270474;28;20056;-83
2023/05/04 12:15:06;;;;;;;2.38;1.35;;;;;;;19.18;42.58;101846.06;6276616;28;20425;-80
2023/05/04 12:18:20;;;;;;;2.53;1.30;;;;;;;19.30;43.35;101841.63;6276164;28;20056;-80
2023/05/04 12:21:21;;;;;;;6.43;1.50;;;;;;;19.46;43.00;101844.91;6276429;28;20048;-78
2023/05/04 12:24:24;;;;;;;4.35;1.35;;;;;;;19.59;42.11;101839.50;6275915;28;20052;-77
2023/05/04 12:27:26;;;;;;;3.50;1.70;;;;;;;19.52;44.35;101830.25;6275832;28;20051;-78
2023/05/04 12:30:27;;;;;;;2.90;0.95;;;;;;;19.41;42.59;101835.53;6279413;28;20048;-83
2023/05/04 12:33:30;;;;;;;1.80;1.17;;;;;;;19.30;42.33;101830.97;6276645;28;20040;-81
2023/05/04 12:36:32;;;;;;;3.22;1.20;;;;;;;19.22;43.50;101831.56;6276338;28;20489;-79
2023/05/04 12:39:33;;;;;;;3.58;1.42;;;;;;;19.27;44.63;101826.72;6275223;28;20041;-81
2023/05/04 12:42:35;;;;;;;2.45;1.55;;;;;;;19.26;43.20;101825.03;6266364;28;20617;-83
2023/05/04 12:45:36;;;;;;;4.95;1.33;;;;;;;19.40;42.71;101826.69;6269322;28;20068;-81
2023/05/04 12:48:39;;;;;;;4.13;2.22;;;;;;;19.26;42.81;101818.84;6264556;28;20434;-82
2023/05/04 12:51:41;;;;;;;4.90;1.92;;;;;;;19.34;44.01;101823.59;6273060;28;20045;-83
2023/05/04 12:54:42;;;;;;;2.90;1.20;;;;;;;19.35;44.29;101817.31;6274653;28;20454;-81
2023/05/04 12:57:44;;;;;;;2.22;1.15;;;;;;;19.52;43.23;101817.78;6275131;28;20430;-80
2023/05/04 13:00:45;;;;;;;4.93;1.40;;;;;;;19.51;42.29;101801.91;6274644;28;20128;-80
2023/05/04 13:03:48;;;;;;;2.50;1.30;;;;;;;19.61;43.45;101802.09;6269383;28;20353;-80
2023/05/04 13:06:50;;;;;;;3.22;1.60;;;;;;;19.58;42.94;101800.50;6264647;28;20048;-79
2023/05/04 13:09:51;;;;;;;4.85;1.80;;;;;;;19.52;40.38;101792.91;6271292;28;20053;-79
2023/05/04 13:12:53;;;;;;;2.50;1.25;;;;;;;19.46;42.23;101790.72;6275148;28;20049;-81
2023/05/04 13:15:54;;;;;;;4.43;1.45;;;;;;;19.40;43.30;101786.72;6273322;28;20052;-81
2023/05/04 13:18:57;;;;;;;4.00;1.65;;;;;;;19.43;42.97;101773.13;6267291;28;20071;-79
2023/05/04 13:21:59;;;;;;;1.77;1.05;;;;;;;19.53;45.18;101767.97;6270744;28;20048;-80
2023/05/04 13:25:00;;;;;;;2.95;1.52;;;;;;;19.66;43.75;101768.78;6274900;28;20048;-82
2023/05/04 13:28:02;;;;;;;1.48;1.10;;;;;;;19.75;45.05;101765.41;6274496;28;20441;-82
2023/05/04 13:31:04;;;;;;;8.38;4.00;;;;;;;19.74;45.14;101761.03;6274894;28;20049;-83
2023/05/04 13:34:07;;;;;;;2.58;1.17;;;;;;;19.73;41.36;101761.16;6274840;28;20095;-81
2023/05/04 13:37:11;;;;;;;2.83;1.05;;;;;;;19.71;41.92;101766.63;6274671;28;20144;-82
2023/05/04 13:40:13;;;;;;;18.67;5.72;;;;;;;19.70;41.57;101756.06;6262853;28;20357;-80
2023/05/04 13:43:14;;;;;;;12.55;2.47;;;;;;;19.73;42.89;101743.34;6267511;28;20127;-80
2023/05/04 13:46:16;;;;;;;4.63;1.10;;;;;;;19.88;41.86;101751.13;6273433;28;20051;-82
2023/05/04 13:49:18;;;;;;;16.27;5.63;;;;;;;19.84;41.26;101750.53;6271433;28;20339;-82
2023/05/04 13:52:20;;;;;;;2.85;1.08;;;;;;;19.66;40.53;101744.75;6269279;28;20377;-81
2023/05/04 13:55:21;;;;;;;4.40;0.88;;;;;;;19.68;41.06;101742.84;6271221;28;20052;-80
2023/05/04 13:58:22;;;;;;;3.67;1.20;;;;;;;19.60;41.57;101734.56;6274326;28;20060;-82
2023/05/04 14:01:24;;;;;;;4.50;1.23;;;;;;;19.65;41.55;101728.88;6265466;28;20422;-82
2023/05/04 14:04:27;;;;;;;2.92;1.17;;;;;;;19.84;40.05;101726.50;6265671;28;20365;-81
2023/05/04 14:07:29;;;;;;;2.90;1.13;;;;;;;19.99;40.43;101722.69;6268336;28;20056;-80
2023/05/04 14:10:30;;;;;;;1.80;1.10;;;;;;;20.04;40.00;101718.81;6274098;28;20048;-82
2023/05/04 14:13:31;;;;;;;1.52;1.02;;;;;;;20.08;39.72;101714.94;6273581;28;20044;-83